createdAt,value
2022-11-20T00:00:52.710Z,18.91
2022-11-20T00:03:19.675Z,19.07
2022-11-20T00:05:46.703Z,19.22
2022-11-20T00:08:13.841Z,18.90
2022-11-20T00:10:41.476Z,18.57
2022-11-20T00:13:09.306Z,19.10
2022-11-20T00:15:36.039Z,18.89
2022-11-20T00:18:02.923Z,19.04
2022-11-20T00:20:29.655Z,19.10
2022-11-20T00:22:56.340Z,18.24
2022-11-20T00:25:23.026Z,18.55
2022-11-20T00:27:49.983Z,19.04
2022-11-20T00:30:16.768Z,18.98
2022-11-20T00:32:43.553Z,18.83
2022-11-20T00:35:10.382Z,19.35
2022-11-20T00:37:37.236Z,19.38
2022-11-20T00:40:04.305Z,19.00
2022-11-20T00:42:33.780Z,18.59
2022-11-20T00:45:00.471Z,18.81
2022-11-20T00:47:27.225Z,19.16
2022-11-20T00:49:53.918Z,19.29
2022-11-20T00:52:20.682Z,19.26
2022-11-20T00:54:47.343Z,19.28
2022-11-20T00:57:14.348Z,18.60
2022-11-20T00:59:41.343Z,18.87
2022-11-20T01:02:08.203Z,19.49
2022-11-20T01:04:35.070Z,19.47
2022-11-20T01:07:01.949Z,19.71
2022-11-20T01:09:28.636Z,19.77
2022-11-20T01:11:55.767Z,20.14
2022-11-20T01:14:22.430Z,20.11
2022-11-20T01:16:51.581Z,19.58
2022-11-20T01:19:22.172Z,19.71
2022-11-20T01:21:54.478Z,19.90
2022-11-20T01:24:22.834Z,20.14
2022-11-20T01:26:51.801Z,20.45
2022-11-20T01:29:24.247Z,20.49
2022-11-20T01:31:52.513Z,20.31
2022-11-20T01:34:21.026Z,20.25
2022-11-20T01:36:48.563Z,19.94
2022-11-20T01:39:19.098Z,19.73
2022-11-20T01:42:09.855Z,19.85
2022-11-20T01:44:57.698Z,20.34
2022-11-20T01:47:33.807Z,19.60
2022-11-20T01:50:06.311Z,19.55
2022-11-20T01:52:42.069Z,19.58
2022-11-20T01:55:15.740Z,19.75
2022-11-20T01:57:44.698Z,20.33
2022-11-20T02:00:14.414Z,20.26
2022-11-20T02:02:46.183Z,20.49
2022-11-20T02:05:28.397Z,20.56
2022-11-20T02:07:58.300Z,20.60
2022-11-20T02:10:25.479Z,20.62
2022-11-20T02:13:11.344Z,20.49
2022-11-20T02:15:38.349Z,20.51
2022-11-20T02:18:06.630Z,20.73
2022-11-20T02:20:33.738Z,20.31
2022-11-20T02:23:14.418Z,20.65
2022-11-20T02:25:43.884Z,20.33
2022-11-20T02:28:11.320Z,19.97
2022-11-20T02:30:38.156Z,20.72
2022-11-20T02:33:05.015Z,20.91
2022-11-20T02:35:32.216Z,20.27
2022-11-20T02:38:02.062Z,20.65
2022-11-20T02:40:29.454Z,21.08
2022-11-20T02:42:57.616Z,21.11
2022-11-20T02:45:25.099Z,20.91
2022-11-20T02:47:52.839Z,21.38
2022-11-20T02:50:19.968Z,21.09
2022-11-20T02:52:47.325Z,21.54
2022-11-20T02:55:14.065Z,21.62
2022-11-20T02:57:41.039Z,22.09
2022-11-20T03:00:10.071Z,22.06
2022-11-20T03:02:37.055Z,21.33
2022-11-20T03:05:04.128Z,21.45
2022-11-20T03:07:31.047Z,21.68
2022-11-20T03:09:57.788Z,22.66
2022-11-20T03:12:24.617Z,22.41
2022-11-20T03:14:53.237Z,21.85
2022-11-20T03:17:20.386Z,22.18
2022-11-20T03:19:47.108Z,21.76
2022-11-20T03:22:14.052Z,22.48
2022-11-20T03:24:40.738Z,22.37
2022-11-20T03:27:07.982Z,22.27
2022-11-20T03:29:36.585Z,21.80
2022-11-20T03:32:03.536Z,22.56
2022-11-20T03:34:30.323Z,22.86
2022-11-20T03:36:57.014Z,22.74
2022-11-20T03:39:24.079Z,22.61
2022-11-20T03:41:51.429Z,22.91
2022-11-20T03:44:18.178Z,22.76
2022-11-20T03:46:44.877Z,22.69
2022-11-20T03:49:11.688Z,22.56
2022-11-20T03:51:38.485Z,22.46
2022-11-20T03:54:07.991Z,22.59
2022-11-20T03:56:38.068Z,22.32
2022-11-20T03:59:05.897Z,22.38
2022-11-20T04:01:36.405Z,21.86
2022-11-20T04:04:03.977Z,22.23
2022-11-20T04:06:35.624Z,22.38
2022-11-20T04:09:02.835Z,22.14
2022-11-20T04:11:31.818Z,22.06
2022-11-20T04:14:01.160Z,22.52
2022-11-20T04:16:31.324Z,22.69
2022-11-20T04:19:03.608Z,22.47
2022-11-20T04:21:30.547Z,21.78
2022-11-20T04:23:58.387Z,22.12
2022-11-20T04:26:27.440Z,22.46
2022-11-20T04:28:54.246Z,22.11
2022-11-20T04:31:23.901Z,21.52
2022-11-20T04:33:51.531Z,21.63
2022-11-20T04:36:28.328Z,22.21
2022-11-20T04:39:00.635Z,22.07
2022-11-20T04:41:33.760Z,22.26
2022-11-20T04:44:05.437Z,22.13
2022-11-20T04:46:38.511Z,22.19
2022-11-20T04:49:06.225Z,22.35
2022-11-20T04:51:33.837Z,23.08
2022-11-20T04:54:00.741Z,23.02
2022-11-20T04:56:27.560Z,22.53
2022-11-20T04:58:54.554Z,22.17
2022-11-20T05:01:25.390Z,22.68
2022-11-20T05:03:53.521Z,22.71
2022-11-20T05:06:22.548Z,21.87
2022-11-20T05:08:50.194Z,22.34
2022-11-20T05:11:20.010Z,22.32
2022-11-20T05:13:48.602Z,22.14
2022-11-20T05:16:18.486Z,22.22
2022-11-20T05:18:46.225Z,22.30
2022-11-20T05:21:13.838Z,22.11
2022-11-20T05:23:41.919Z,22.12
2022-11-20T05:26:13.637Z,21.90
2022-11-20T05:28:40.589Z,21.81
2022-11-20T05:31:16.142Z,21.43
2022-11-20T05:33:44.704Z,21.26
2022-11-20T05:36:13.162Z,21.20
2022-11-20T05:38:40.410Z,21.30
2022-11-20T05:41:17.985Z,21.41
2022-11-20T05:43:46.892Z,21.26
2022-11-20T05:46:32.074Z,21.43
2022-11-20T05:48:59.475Z,21.44
2022-11-20T05:51:27.263Z,21.31
2022-11-20T05:53:54.299Z,21.31
2022-11-20T05:56:22.713Z,21.40
2022-11-20T05:58:50.509Z,20.93
2022-11-20T06:01:26.679Z,20.85
2022-11-20T06:03:55.317Z,21.11
2022-11-20T06:06:22.852Z,21.02
2022-11-20T06:08:49.855Z,21.08
2022-11-20T06:11:17.509Z,20.79
2022-11-20T06:13:44.383Z,20.59
2022-11-20T06:16:14.334Z,20.64
2022-11-20T06:18:41.278Z,21.43
2022-11-20T06:21:11.833Z,21.71
2022-11-20T06:23:39.013Z,21.56
2022-11-20T06:26:08.715Z,21.47
2022-11-20T06:28:36.098Z,21.96
2022-11-20T06:31:04.092Z,21.73
2022-11-20T06:33:30.854Z,21.82
2022-11-20T06:36:05.696Z,21.96
2022-11-20T06:38:35.900Z,21.72
2022-11-20T06:41:03.927Z,21.52
2022-11-20T06:43:30.981Z,21.47
2022-11-20T06:45:59.258Z,21.90
2022-11-20T06:48:29.715Z,21.96
2022-11-20T06:50:57.964Z,21.96
2022-11-20T06:53:25.729Z,21.93
2022-11-20T06:55:53.078Z,21.87
2022-11-20T06:58:20.258Z,22.14
2022-11-20T07:00:47.334Z,22.24
2022-11-20T07:03:15.418Z,21.69
2022-11-20T07:05:42.376Z,21.94
2022-11-20T07:08:10.623Z,21.81
2022-11-20T07:10:37.510Z,22.03
2022-11-20T07:13:04.626Z,21.84
2022-11-20T07:15:31.834Z,22.13
2022-11-20T07:18:01.932Z,22.26
2022-11-20T07:20:29.253Z,22.21
2022-11-20T07:22:57.234Z,22.27
2022-11-20T07:25:27.915Z,22.19
2022-11-20T07:27:59.577Z,21.53
2022-11-20T07:30:27.384Z,22.03
2022-11-20T07:32:56.344Z,22.13
2022-11-20T07:35:24.253Z,22.30
2022-11-20T07:37:50.987Z,22.42
2022-11-20T07:40:18.626Z,22.28
2022-11-20T07:42:53.637Z,22.01
2022-11-20T07:45:21.889Z,22.01
2022-11-20T07:47:49.004Z,21.88
2022-11-20T07:50:16.584Z,22.09
2022-11-20T07:52:44.671Z,22.07
2022-11-20T07:55:12.102Z,22.11
2022-11-20T07:57:38.999Z,22.21
2022-11-20T08:00:08.137Z,22.37
2022-11-20T08:02:42.786Z,22.17
2022-11-20T08:05:10.941Z,22.28
2022-11-20T08:07:42.949Z,22.07
2022-11-20T08:10:11.746Z,22.19
2022-11-20T08:13:12.935Z,22.30
2022-11-20T08:15:41.415Z,21.96
2022-11-20T08:21:04.774Z,22.07
2022-11-20T08:23:31.969Z,21.71
2022-11-20T08:25:58.643Z,21.81
2022-11-20T08:28:25.453Z,22.04
2022-11-20T08:30:52.188Z,22.03
2022-11-20T08:33:19.515Z,22.02
2022-11-20T08:35:46.597Z,21.91
2022-11-20T08:38:13.424Z,21.91
2022-11-20T08:40:40.245Z,22.10
2022-11-20T08:43:06.971Z,22.32
2022-11-20T08:45:35.218Z,22.11
2022-11-20T08:48:03.552Z,21.55
2022-11-20T08:50:33.360Z,21.62
2022-11-20T08:53:06.834Z,21.68
2022-11-20T08:55:33.977Z,21.78
2022-11-20T08:58:05.518Z,21.42
2022-11-20T09:00:34.481Z,21.60
2022-11-20T09:03:02.170Z,22.13
2022-11-20T09:05:29.934Z,22.14
2022-11-20T09:08:00.300Z,22.13
2022-11-20T09:10:29.970Z,21.95
2022-11-20T09:12:57.233Z,21.79
2022-11-20T09:15:25.075Z,21.64
2022-11-20T09:17:53.256Z,21.44
2022-11-20T09:20:20.520Z,21.62
2022-11-20T09:22:47.705Z,20.93
2022-11-20T09:25:14.414Z,21.68
2022-11-20T09:27:44.612Z,21.01
2022-11-20T09:30:12.215Z,20.38
2022-11-20T09:32:42.957Z,20.72
2022-11-20T09:35:10.323Z,20.29
2022-11-20T09:37:36.990Z,20.94
2022-11-20T09:40:04.426Z,21.47
2022-11-20T09:42:52.786Z,21.53
2022-11-20T09:45:58.352Z,21.23
2022-11-20T09:49:19.016Z,21.42
2022-11-20T09:52:01.976Z,21.04
2022-11-20T09:54:33.702Z,21.07
2022-11-20T09:57:17.816Z,21.23
2022-11-20T10:00:05.817Z,21.17
2022-11-20T10:03:04.809Z,20.49
2022-11-20T10:05:40.318Z,20.83
2022-11-20T10:08:17.119Z,20.69
2022-11-20T10:11:07.093Z,20.85
2022-11-20T10:14:08.097Z,20.32
2022-11-20T10:16:40.588Z,20.42
2022-11-20T10:19:29.621Z,20.74
2022-11-20T10:22:35.498Z,20.64
2022-11-20T10:25:15.107Z,20.12
2022-11-20T10:28:12.802Z,20.21
2022-11-20T10:30:44.363Z,19.84
2022-11-20T10:33:18.756Z,20.61
2022-11-20T10:36:17.422Z,20.31
2022-11-20T10:38:50.680Z,20.25
2022-11-20T10:41:27.209Z,20.55
2022-11-20T10:43:58.138Z,20.56
2022-11-20T10:46:26.649Z,20.92
2022-11-20T10:48:53.389Z,20.64
2022-11-20T10:51:23.758Z,20.69
2022-11-20T10:54:29.306Z,20.57
2022-11-20T10:57:06.395Z,20.70
2022-11-20T10:59:45.300Z,20.55
2022-11-20T11:02:23.217Z,19.88
2022-11-20T11:04:54.366Z,20.09
2022-11-20T11:07:50.274Z,20.50
2022-11-20T11:10:27.091Z,20.74
2022-11-20T11:12:54.046Z,20.46
2022-11-20T11:15:38.393Z,20.15
2022-11-20T11:18:05.780Z,19.30
2022-11-20T11:20:33.423Z,18.29
2022-11-20T11:23:01.141Z,18.11
2022-11-20T11:25:34.590Z,18.26
2022-11-20T11:28:19.869Z,17.86
2022-11-20T11:30:49.519Z,18.13
2022-11-20T11:33:30.310Z,18.05
2022-11-20T11:36:00.530Z,17.55
2022-11-20T11:38:36.387Z,17.88
2022-11-20T11:41:05.391Z,17.78
2022-11-20T11:43:56.117Z,17.68
2022-11-20T11:46:30.357Z,18.08
2022-11-20T11:49:01.648Z,18.11
2022-11-20T11:51:37.880Z,17.93
2022-11-20T11:54:15.464Z,17.68
2022-11-20T11:56:42.548Z,17.02
2022-11-20T11:59:18.195Z,17.43
2022-11-20T12:01:52.675Z,17.70
2022-11-20T12:04:47.461Z,18.19
2022-11-20T12:07:45.972Z,17.69
2022-11-20T12:10:22.209Z,17.69
2022-11-20T12:13:16.732Z,17.84
2022-11-20T12:15:47.340Z,17.60
2022-11-20T12:18:23.246Z,17.44
2022-11-20T12:21:11.579Z,17.75
2022-11-20T12:23:53.332Z,17.20
2022-11-20T12:26:44.224Z,16.88
2022-11-20T12:29:14.190Z,16.87
2022-11-20T12:32:02.390Z,16.59
2022-11-20T12:34:36.779Z,16.89
2022-11-20T12:37:12.453Z,16.98
2022-11-20T12:39:51.575Z,17.28
2022-11-20T12:43:08.812Z,17.09
2022-11-20T12:45:55.458Z,17.60
2022-11-20T12:48:29.590Z,17.96
2022-11-20T12:51:21.059Z,18.33
2022-11-20T12:54:02.136Z,18.45
2022-11-20T12:56:47.842Z,18.68
2022-11-20T12:59:22.692Z,18.52
2022-11-20T13:01:56.544Z,17.99
2022-11-20T13:04:44.716Z,18.31
2022-11-20T13:07:15.398Z,18.27
2022-11-20T13:09:46.980Z,17.60
2022-11-20T13:12:18.200Z,17.72
2022-11-20T13:14:51.326Z,17.30
2022-11-20T13:17:36.480Z,17.51
2022-11-20T13:20:06.790Z,17.44
2022-11-20T13:22:55.619Z,17.37
2022-11-20T13:25:27.170Z,17.47
2022-11-20T13:27:55.271Z,17.56
2022-11-20T13:30:24.441Z,17.61
2022-11-20T13:33:06.720Z,17.58
2022-11-20T13:35:36.232Z,17.53
2022-11-20T13:38:15.226Z,17.12
2022-11-20T13:40:52.763Z,17.94
2022-11-20T13:43:27.802Z,17.83
2022-11-20T13:46:01.441Z,17.93
2022-11-20T13:48:33.068Z,17.91
2022-11-20T13:51:02.896Z,18.12
2022-11-20T13:53:52.691Z,18.30
2022-11-20T13:56:32.219Z,18.41
2022-11-20T13:59:15.108Z,18.26
2022-11-20T14:01:46.410Z,18.27
2022-11-20T14:04:30.213Z,18.20
2022-11-20T14:06:57.842Z,18.10
2022-11-20T14:09:30.873Z,18.34
2022-11-20T14:11:58.373Z,17.84
2022-11-20T14:14:27.134Z,18.32
2022-11-20T14:17:08.947Z,18.05
2022-11-20T14:19:38.130Z,18.19
2022-11-20T14:22:09.431Z,18.29
2022-11-20T14:24:36.363Z,17.98
2022-11-20T14:27:03.337Z,18.26
2022-11-20T14:29:36.159Z,18.15
2022-11-20T14:32:04.626Z,18.36
2022-11-20T14:34:36.641Z,18.05
2022-11-20T14:37:10.413Z,18.22
2022-11-20T14:39:53.475Z,18.19
2022-11-20T14:42:26.278Z,17.94
2022-11-20T14:44:57.099Z,18.25
2022-11-20T14:47:30.209Z,18.15
2022-11-20T14:49:58.727Z,18.08
2022-11-20T14:52:27.585Z,18.20
2022-11-20T14:54:57.498Z,17.19
2022-11-20T14:57:30.028Z,17.76
2022-11-20T15:00:09.483Z,17.98
2022-11-20T15:02:40.457Z,18.16
2022-11-20T15:05:07.601Z,17.54
2022-11-20T15:07:41.227Z,17.75
2022-11-20T15:10:22.423Z,18.03
2022-11-20T15:13:01.044Z,17.58
2022-11-20T15:15:49.027Z,17.59
2022-11-20T15:18:19.184Z,17.72
2022-11-20T15:20:46.835Z,17.26
2022-11-20T15:23:16.459Z,17.41
2022-11-20T15:25:43.580Z,16.92
2022-11-20T15:28:21.909Z,16.89
2022-11-20T15:30:50.611Z,16.81
2022-11-20T15:33:19.241Z,17.18
2022-11-20T15:35:46.351Z,16.88
2022-11-20T15:38:13.310Z,16.80
2022-11-20T15:40:40.469Z,17.02
2022-11-20T15:43:13.233Z,16.85
2022-11-20T15:45:49.281Z,16.59
2022-11-20T15:48:20.227Z,17.00
2022-11-20T15:51:04.941Z,16.91
2022-11-20T15:53:31.922Z,16.23
2022-11-20T15:55:58.666Z,16.74
2022-11-20T15:58:25.781Z,16.72
2022-11-20T16:00:52.461Z,16.20
2022-11-20T16:03:20.829Z,16.39
2022-11-20T16:05:47.844Z,16.46
2022-11-20T16:08:15.231Z,16.52
2022-11-20T16:10:43.310Z,16.62
2022-11-20T16:13:34.365Z,17.01
2022-11-20T16:16:06.408Z,16.68
2022-11-20T16:18:34.014Z,16.88
2022-11-20T16:21:01.200Z,16.85
2022-11-20T16:23:27.981Z,16.67
2022-11-20T16:25:54.958Z,16.71
2022-11-20T16:28:21.903Z,16.46
2022-11-20T16:30:48.607Z,16.51
2022-11-20T16:33:18.244Z,16.95
2022-11-20T16:35:45.213Z,17.18
2022-11-20T16:38:11.921Z,16.82
2022-11-20T16:40:38.779Z,16.96
2022-11-20T16:43:11.074Z,16.94
2022-11-20T16:45:45.743Z,17.09
2022-11-20T16:48:14.526Z,17.26
2022-11-20T16:50:47.791Z,17.32
2022-11-20T16:53:14.649Z,17.27
2022-11-20T16:55:41.597Z,17.38
2022-11-20T16:58:09.740Z,17.39
2022-11-20T17:00:38.542Z,16.65
2022-11-20T17:03:06.724Z,15.96
2022-11-20T17:05:34.719Z,16.49
2022-11-20T17:08:01.813Z,16.29
2022-11-20T17:10:28.765Z,16.67
2022-11-20T17:12:55.496Z,16.78
2022-11-20T17:15:22.425Z,16.59
2022-11-20T17:17:49.065Z,16.80
2022-11-20T17:20:15.881Z,16.60
2022-11-20T17:22:42.711Z,16.48
2022-11-20T17:25:09.514Z,15.49
2022-11-20T17:27:36.553Z,15.37
2022-11-20T17:30:03.610Z,16.04
2022-11-20T17:32:30.515Z,16.12
2022-11-20T17:34:58.901Z,16.19
2022-11-20T17:37:25.752Z,16.08
2022-11-20T17:39:52.602Z,16.02
2022-11-20T17:42:29.760Z,15.99
2022-11-20T17:44:58.890Z,16.20
2022-11-20T17:47:26.064Z,16.42
2022-11-20T17:49:53.686Z,16.35
2022-11-20T17:52:20.532Z,16.56
2022-11-20T17:54:47.434Z,16.66
2022-11-20T17:57:33.083Z,16.55
2022-11-20T17:59:59.971Z,16.78
2022-11-20T18:02:26.627Z,16.52
2022-11-20T18:04:53.453Z,16.54
2022-11-20T18:07:20.306Z,16.90
2022-11-20T18:09:47.172Z,16.71
2022-11-20T18:12:13.909Z,16.79
2022-11-20T18:14:41.838Z,16.19
2022-11-20T18:17:11.278Z,16.12
2022-11-20T18:19:47.981Z,15.49
2022-11-20T18:22:23.493Z,15.54
2022-11-20T18:24:50.223Z,16.00
2022-11-20T18:27:20.236Z,15.83
2022-11-20T18:29:51.728Z,15.95
2022-11-20T18:32:20.477Z,15.94
2022-11-20T18:34:47.472Z,16.33
2022-11-20T18:37:15.581Z,16.45
2022-11-20T18:39:42.999Z,16.20
2022-11-20T18:42:31.982Z,16.15
2022-11-20T18:45:00.289Z,16.21
2022-11-20T18:47:30.563Z,15.83
2022-11-20T18:50:02.638Z,15.96
2022-11-20T18:52:35.563Z,15.67
2022-11-20T18:55:04.225Z,15.53
2022-11-20T18:57:31.835Z,15.92
2022-11-20T19:00:03.626Z,16.23
2022-11-20T19:02:40.884Z,16.13
2022-11-20T19:05:13.102Z,15.73
2022-11-20T19:07:40.211Z,14.80
2022-11-20T19:10:07.614Z,15.33
2022-11-20T19:12:34.426Z,15.76
2022-11-20T19:15:01.413Z,16.15
2022-11-20T19:17:28.205Z,16.09
2022-11-20T19:19:55.221Z,16.20
2022-11-20T19:22:22.466Z,15.55
2022-11-20T19:24:49.804Z,15.99
2022-11-20T19:27:16.565Z,16.11
2022-11-20T19:29:43.373Z,16.01
2022-11-20T19:32:10.370Z,16.43
2022-11-20T19:34:37.324Z,16.34
2022-11-20T19:37:05.145Z,16.15
2022-11-20T19:39:32.025Z,16.25
2022-11-20T19:41:58.912Z,16.28
2022-11-20T19:44:25.762Z,16.34
2022-11-20T19:46:52.626Z,16.64
2022-11-20T19:49:19.462Z,16.50
2022-11-20T19:51:48.680Z,16.72
2022-11-20T19:54:16.911Z,16.42
2022-11-20T19:56:45.266Z,16.12
2022-11-20T19:59:12.454Z,15.75
2022-11-20T20:01:39.636Z,15.48
2022-11-20T20:04:07.116Z,15.96
2022-11-20T20:06:36.660Z,16.07
2022-11-20T20:09:06.623Z,16.26
2022-11-20T20:11:34.656Z,16.36
2022-11-20T20:14:06.493Z,16.26
2022-11-20T20:16:35.406Z,16.43
2022-11-20T20:19:04.068Z,16.17
2022-11-20T20:21:32.680Z,16.60
2022-11-20T20:23:59.859Z,16.46
2022-11-20T20:26:29.495Z,16.35
2022-11-20T20:28:56.443Z,16.40
2022-11-20T20:31:25.843Z,16.23
2022-11-20T20:33:53.275Z,16.29
2022-11-20T20:36:22.068Z,16.26
2022-11-20T20:38:52.938Z,16.20
2022-11-20T20:41:20.992Z,16.14
2022-11-20T20:44:06.230Z,16.06
2022-11-20T20:46:33.720Z,15.75
2022-11-20T20:49:00.609Z,15.58
2022-11-20T20:51:27.636Z,15.72
2022-11-20T20:53:54.879Z,15.66
2022-11-20T20:56:21.731Z,15.98
2022-11-20T20:58:48.955Z,15.70
2022-11-20T21:01:18.812Z,16.02
2022-11-20T21:03:46.101Z,16.01
2022-11-20T21:06:13.606Z,15.83
2022-11-20T21:08:42.096Z,15.79
2022-11-20T21:11:16.245Z,15.86
2022-11-20T21:13:45.222Z,15.74
2022-11-20T21:16:14.029Z,15.68
2022-11-20T21:18:41.485Z,15.93
2022-11-20T21:21:31.084Z,15.96
2022-11-20T21:23:58.483Z,16.04
2022-11-20T21:26:25.294Z,15.83
2022-11-20T21:29:11.132Z,16.08
2022-11-20T21:31:39.224Z,16.04
2022-11-20T21:34:13.780Z,15.80
2022-11-20T21:36:42.619Z,15.78
2022-11-20T21:39:11.579Z,15.96
2022-11-20T21:41:40.573Z,15.85
2022-11-20T21:47:01.029Z,15.70
2022-11-20T21:49:27.893Z,15.82
2022-11-20T21:51:54.703Z,16.10
2022-11-20T21:54:21.711Z,16.06
2022-11-20T21:56:48.701Z,16.06
2022-11-20T21:59:15.544Z,15.94
2022-11-20T22:01:42.633Z,15.86
2022-11-20T22:04:13.196Z,15.51
2022-11-20T22:06:40.000Z,15.61
2022-11-20T22:09:06.727Z,15.70
2022-11-20T22:11:33.460Z,15.75
2022-11-20T22:14:18.949Z,15.55
2022-11-20T22:16:46.125Z,15.41
2022-11-20T22:19:18.039Z,15.91
2022-11-20T22:21:45.130Z,15.94
2022-11-20T22:24:17.101Z,15.78
2022-11-20T22:26:44.303Z,15.82
2022-11-20T22:29:20.995Z,16.06
2022-11-20T22:31:48.016Z,15.81
2022-11-20T22:34:15.414Z,15.45
2022-11-20T22:36:42.487Z,15.40
2022-11-20T22:39:09.822Z,15.61
2022-11-20T22:41:36.709Z,15.54
2022-11-20T22:44:06.138Z,15.16
2022-11-20T22:46:35.276Z,15.43
2022-11-20T22:49:04.535Z,15.71
2022-11-20T22:51:33.530Z,15.84
2022-11-20T22:54:01.118Z,15.77
2022-11-20T22:56:27.895Z,15.82
2022-11-20T22:58:54.865Z,15.97
2022-11-20T23:01:33.106Z,15.85
2022-11-20T23:04:02.580Z,15.95
2022-11-20T23:06:30.206Z,15.79
2022-11-20T23:08:57.261Z,16.14
2022-11-20T23:11:26.862Z,16.08
2022-11-20T23:13:58.976Z,16.06
2022-11-20T23:16:27.969Z,15.65
2022-11-20T23:19:02.737Z,15.06
2022-11-20T23:21:30.059Z,15.73
2022-11-20T23:23:58.334Z,16.03
2022-11-20T23:26:28.104Z,16.20
2022-11-20T23:28:56.597Z,15.76
2022-11-20T23:31:24.358Z,15.65
2022-11-20T23:33:51.658Z,15.51
2022-11-20T23:36:18.545Z,15.57
2022-11-20T23:38:45.270Z,15.80
2022-11-20T23:41:12.712Z,15.74
2022-11-20T23:43:39.914Z,15.90
2022-11-20T23:46:07.460Z,15.93
2022-11-20T23:48:36.324Z,15.34
2022-11-20T23:51:05.040Z,15.69
2022-11-20T23:53:33.586Z,15.59
2022-11-20T23:56:03.110Z,15.87
2022-11-20T23:58:33.149Z,16.16
